Time;durP1;ratioP1;P1;durP2;ratioP2;P2;SDS_P1;SDS_P2;PMS_P1;PMS_P2;Temp;Humidity;BMP_temperature;BMP_pressure;BME280_temperature;BME280_humidity;BME280_pressure;Samples;Min_cycle;Max_cycle;Signal;HPM_P1;HPM_P2
2022/03/24 00:00:01;;;;;;;35.03;27.67;;;;;;;;;;2037103;29;20191;-58
2022/03/24 00:01:01;;;;;;;34.50;27.27;;;;;;;;;;2049131;29;20195;-57
2022/03/24 00:02:02;;;;;;;36.40;28.70;;;;;;;;;;2048552;29;20185;-54
2022/03/24 00:03:02;;;;;;;36.77;28.53;;;;;;;;;;2049199;29;20211;-59
2022/03/24 00:04:03;;;;;;;42.30;30.13;;;;;;;;;;2048836;29;20174;-56
2022/03/24 00:05:03;;;;;;;37.97;29.93;;;;;;;;;;2049306;29;20554;-59
2022/03/24 00:06:04;;;;;;;40.27;31.23;;;;;;;;;;2040805;29;20763;-55
2022/03/24 00:07:05;;;;;;;40.73;31.57;;;;;;;;;;2033115;29;20267;-55
2022/03/24 00:08:06;;;;;;;51.57;36.67;;;;;;;;;;2030067;29;20172;-55
2022/03/24 00:09:06;;;;;;;41.40;29.70;;;;;;;;;;2041116;29;20210;-55
2022/03/24 00:10:07;;;;;;;40.07;29.60;;;;;;;;;;2048637;29;20190;-52
2022/03/24 00:11:08;;;;;;;40.63;30.87;;;;;;;;;;2039680;29;20223;-54
2022/03/24 00:12:08;;;;;;;38.50;29.40;;;;;;;;;;2040745;29;20598;-56
2022/03/24 00:13:09;;;;;;;41.13;30.03;;;;;;;;;;2048857;29;20194;-54
2022/03/24 00:14:10;;;;;;;33.87;28.07;;;;;;;;;;2048936;29;20186;-54
2022/03/24 00:15:11;;;;;;;39.63;30.27;;;;;;;;;;2048743;29;20198;-52
2022/03/24 00:16:11;;;;;;;37.80;29.93;;;;;;;;;;2049519;29;20185;-57
2022/03/24 00:17:11;;;;;;;40.03;29.93;;;;;;;;;;2049177;29;20171;-55
2022/03/24 00:18:12;;;;;;;44.83;31.20;;;;;;;;;;2049428;29;20662;-52
2022/03/24 00:19:13;;;;;;;39.50;28.73;;;;;;;;;;2048174;29;20550;-55
2022/03/24 00:20:13;;;;;;;40.27;30.83;;;;;;;;;;2040500;29;20171;-59
2022/03/24 00:21:16;;;;;;;38.20;30.30;;;;;;;;;;2040503;29;20183;-56
2022/03/24 00:22:16;;;;;;;38.53;29.77;;;;;;;;;;2049489;29;20197;-54
2022/03/24 00:23:16;;;;;;;40.33;30.33;;;;;;;;;;2040173;29;20214;-55
2022/03/24 00:24:17;;;;;;;43.00;31.10;;;;;;;;;;2023715;29;20181;-51
2022/03/24 00:25:17;;;;;;;39.67;30.63;;;;;;;;;;2032993;29;20286;-53
2022/03/24 00:26:18;;;;;;;42.73;30.70;;;;;;;;;;2047386;29;20269;-55
2022/03/24 00:27:19;;;;;;;39.77;30.73;;;;;;;;;;2048171;29;20833;-56
2022/03/24 00:28:20;;;;;;;40.27;31.03;;;;;;;;;;2041112;28;20275;-58
2022/03/24 00:29:20;;;;;;;39.93;29.47;;;;;;;;;;2041152;29;20187;-55
2022/03/24 00:30:20;;;;;;;43.87;31.03;;;;;;;;;;2035535;29;20180;-54
2022/03/24 00:31:21;;;;;;;38.70;30.43;;;;;;;;;;2038218;29;20254;-55
2022/03/24 00:32:21;;;;;;;42.60;31.33;;;;;;;;;;2048091;28;20655;-56
2022/03/24 00:33:22;;;;;;;37.77;30.33;;;;;;;;;;2044355;28;20207;-51
2022/03/24 00:34:23;;;;;;;44.47;29.53;;;;;;;;;;2049548;29;20178;-51
2022/03/24 00:35:24;;;;;;;43.40;30.60;;;;;;;;;;2051565;29;22480;-52
2022/03/24 00:36:24;;;;;;;42.67;30.67;;;;;;;;;;2044321;29;20235;-56
2022/03/24 00:37:25;;;;;;;36.90;30.83;;;;;;;;;;2043504;29;20206;-55
2022/03/24 00:38:26;;;;;;;41.73;30.93;;;;;;;;;;2050978;29;20249;-56
2022/03/24 00:39:26;;;;;;;40.40;31.03;;;;;;;;;;2043483;29;20174;-54
2022/03/24 00:40:27;;;;;;;42.23;31.63;;;;;;;;;;2044181;29;20708;-57
2022/03/24 00:41:28;;;;;;;50.87;34.43;;;;;;;;;;2043590;29;20254;-52
2022/03/24 00:42:28;;;;;;;45.40;31.97;;;;;;;;;;2042789;29;20187;-56
2022/03/24 00:43:30;;;;;;;54.17;38.23;;;;;;;;;;2052192;29;20527;-55
2022/03/24 00:44:31;;;;;;;52.30;38.53;;;;;;;;;;2050875;29;20182;-56
2022/03/24 00:45:31;;;;;;;44.93;33.33;;;;;;;;;;2043735;29;20178;-54
2022/03/24 00:46:32;;;;;;;45.00;33.93;;;;;;;;;;2035995;29;20608;-57
2022/03/24 00:47:35;;;;;;;39.83;30.93;;;;;;;;;;2036420;29;20220;-52
2022/03/24 00:48:35;;;;;;;59.43;40.43;;;;;;;;;;2052614;29;20816;-55
2022/03/24 00:49:36;;;;;;;44.53;32.73;;;;;;;;;;2045502;28;20187;-57
2022/03/24 00:50:36;;;;;;;38.87;29.87;;;;;;;;;;2044997;29;20167;-53
2022/03/24 00:51:37;;;;;;;37.83;29.57;;;;;;;;;;2045087;29;20392;-57
2022/03/24 00:52:41;;;;;;;37.93;29.57;;;;;;;;;;2044641;29;20167;-56
2022/03/24 00:53:42;;;;;;;38.77;28.83;;;;;;;;;;2053182;29;20168;-53
2022/03/24 00:54:42;;;;;;;37.10;28.40;;;;;;;;;;2051917;28;20167;-56
2022/03/24 00:55:43;;;;;;;36.63;29.57;;;;;;;;;;2044338;29;21032;-55
2022/03/24 00:56:45;;;;;;;41.67;30.47;;;;;;;;;;2037209;29;20216;-54
2022/03/24 00:57:49;;;;;;;63.70;44.10;;;;;;;;;;2033424;29;20857;-55
2022/03/24 00:58:49;;;;;;;89.57;51.83;;;;;;;;;;2038368;28;20253;-58
2022/03/24 00:59:50;;;;;;;61.07;37.53;;;;;;;;;;2035612;29;20249;-55
2022/03/24 01:00:53;;;;;;;88.10;52.70;;;;;;;;;;2045627;28;20183;-58
2022/03/24 01:01:55;;;;;;;73.27;45.10;;;;;;;;;;2050247;29;20243;-51
2022/03/24 01:02:57;;;;;;;62.57;42.80;;;;;;;;;;2042052;29;20259;-53
2022/03/24 01:03:57;;;;;;;55.30;38.37;;;;;;;;;;2041275;29;20266;-54
2022/03/24 01:04:57;;;;;;;45.30;32.70;;;;;;;;;;2041063;29;20282;-51
2022/03/24 01:05:58;;;;;;;40.77;30.37;;;;;;;;;;2049312;29;20238;-57
2022/03/24 01:06:58;;;;;;;42.80;30.47;;;;;;;;;;2041865;29;20617;-53
2022/03/24 01:07:58;;;;;;;37.03;29.57;;;;;;;;;;2042253;29;20182;-56
2022/03/24 01:08:58;;;;;;;43.33;32.27;;;;;;;;;;2041355;29;20179;-56
2022/03/24 01:09:59;;;;;;;44.50;32.37;;;;;;;;;;2033911;29;20582;-56
2022/03/24 01:11:01;;;;;;;46.50;33.57;;;;;;;;;;2042257;29;20183;-56
2022/03/24 01:12:02;;;;;;;44.60;32.83;;;;;;;;;;2050968;29;20178;-55
2022/03/24 01:13:03;;;;;;;38.23;31.77;;;;;;;;;;2042512;29;20207;-56
2022/03/24 01:14:05;;;;;;;44.07;32.33;;;;;;;;;;2038898;29;20188;-55
2022/03/24 01:15:06;;;;;;;45.53;33.27;;;;;;;;;;2049777;28;20222;-52
2022/03/24 01:16:09;;;;;;;46.17;31.07;;;;;;;;;;2050910;29;20214;-53
2022/03/24 01:17:10;;;;;;;39.03;31.40;;;;;;;;;;2042721;29;20234;-54
2022/03/24 01:18:14;;;;;;;43.43;33.03;;;;;;;;;;2042895;29;20218;-51
2022/03/24 01:19:14;;;;;;;41.47;31.83;;;;;;;;;;2050325;29;20189;-52
2022/03/24 01:20:16;;;;;;;47.37;33.30;;;;;;;;;;2051503;29;20675;-53
2022/03/24 01:21:16;;;;;;;52.73;36.10;;;;;;;;;;2051736;29;20198;-54
2022/03/24 01:22:17;;;;;;;39.37;30.37;;;;;;;;;;2052109;29;20179;-55
2022/03/24 01:23:17;;;;;;;44.27;32.20;;;;;;;;;;2052774;29;20202;-56
2022/03/24 01:24:19;;;;;;;53.60;37.10;;;;;;;;;;2051736;29;20181;-55
2022/03/24 01:25:20;;;;;;;55.07;37.50;;;;;;;;;;2051216;28;20226;-54
2022/03/24 01:26:22;;;;;;;57.20;39.43;;;;;;;;;;2050766;29;20233;-52
2022/03/24 01:27:25;;;;;;;77.07;48.00;;;;;;;;;;2048871;29;20207;-56
2022/03/24 01:28:29;;;;;;;40.53;32.27;;;;;;;;;;2050592;29;20181;-57
2022/03/24 01:29:29;;;;;;;47.57;33.00;;;;;;;;;;2049640;29;20640;-54
2022/03/24 01:30:29;;;;;;;50.70;34.67;;;;;;;;;;2048193;29;20167;-54
2022/03/24 01:31:31;;;;;;;52.77;37.30;;;;;;;;;;2039382;28;20268;-56
2022/03/24 01:32:32;;;;;;;63.10;40.50;;;;;;;;;;2044042;28;20183;-57
2022/03/24 01:33:32;;;;;;;55.37;37.27;;;;;;;;;;2035457;29;20168;-56
2022/03/24 01:34:33;;;;;;;42.23;30.80;;;;;;;;;;2036009;29;20212;-52
2022/03/24 01:35:33;;;;;;;44.67;33.83;;;;;;;;;;2044288;29;20170;-56
2022/03/24 01:36:35;;;;;;;48.03;35.13;;;;;;;;;;2044686;29;20657;-56
2022/03/24 01:37:35;;;;;;;45.40;32.10;;;;;;;;;;2038564;29;20176;-56
2022/03/24 01:38:37;;;;;;;44.00;31.70;;;;;;;;;;2045777;28;20206;-54
2022/03/24 01:39:38;;;;;;;39.77;30.13;;;;;;;;;;2053777;29;20167;-55
2022/03/24 01:40:39;;;;;;;42.13;31.13;;;;;;;;;;2052894;29;20207;-56
2022/03/24 01:41:40;;;;;;;38.47;30.37;;;;;;;;;;2053044;29;20171;-53
2022/03/24 01:42:40;;;;;;;44.00;32.43;;;;;;;;;;2044968;29;20159;-57
2022/03/24 01:43:42;;;;;;;39.30;30.40;;;;;;;;;;2037203;29;20176;-56
2022/03/24 01:44:46;;;;;;;42.70;30.80;;;;;;;;;;2043415;29;20180;-54
2022/03/24 01:45:47;;;;;;;41.17;30.87;;;;;;;;;;2035994;29;20189;-54
2022/03/24 01:46:56;;;;;;;40.63;29.50;;;;;;;;;;2043139;29;20168;-55
2022/03/24 01:47:57;;;;;;;43.93;31.77;;;;;;;;;;2051994;29;20226;-56
2022/03/24 01:48:57;;;;;;;41.10;30.20;;;;;;;;;;2043485;29;20667;-57
2022/03/24 01:49:58;;;;;;;39.37;29.60;;;;;;;;;;2043885;29;20186;-55
2022/03/24 01:50:59;;;;;;;43.40;30.63;;;;;;;;;;2044169;29;20652;-58
2022/03/24 01:52:00;;;;;;;41.17;30.10;;;;;;;;;;2044637;29;20175;-55
2022/03/24 01:53:02;;;;;;;39.10;29.93;;;;;;;;;;2052748;29;20274;-53
2022/03/24 01:54:02;;;;;;;40.07;31.17;;;;;;;;;;2052257;29;20178;-50
2022/03/24 01:55:04;;;;;;;42.27;30.37;;;;;;;;;;2053820;28;20226;-54
2022/03/24 01:56:04;;;;;;;41.77;30.67;;;;;;;;;;2052731;29;20205;-55
2022/03/24 01:57:05;;;;;;;38.40;29.47;;;;;;;;;;2044644;29;20175;-53
2022/03/24 01:58:06;;;;;;;39.83;28.93;;;;;;;;;;2028949;29;20622;-56
2022/03/24 01:59:07;;;;;;;39.67;30.90;;;;;;;;;;2029004;29;20582;-54
2022/03/24 02:00:08;;;;;;;39.17;29.57;;;;;;;;;;2044911;29;20167;-53
2022/03/24 02:01:26;;;;;;;40.93;28.67;;;;;;;;;;2052331;29;20157;-57
2022/03/24 02:02:27;;;;;;;39.40;29.57;;;;;;;;;;2052913;29;20158;-55
2022/03/24 02:03:27;;;;;;;38.77;30.03;;;;;;;;;;2044273;29;20521;-53
2022/03/24 02:04:30;;;;;;;42.77;29.87;;;;;;;;;;2043876;29;20175;-53
2022/03/24 02:05:34;;;;;;;37.93;28.83;;;;;;;;;;2044044;29;20191;-52
2022/03/24 02:06:35;;;;;;;40.07;29.90;;;;;;;;;;2036271;29;20227;-54
2022/03/24 02:07:37;;;;;;;37.53;28.77;;;;;;;;;;2044173;29;20176;-55
2022/03/24 02:08:38;;;;;;;39.53;29.10;;;;;;;;;;2043973;29;20549;-56
2022/03/24 02:09:39;;;;;;;42.17;29.90;;;;;;;;;;2043603;29;20171;-55
2022/03/24 02:10:39;;;;;;;43.03;30.00;;;;;;;;;;2052218;28;20167;-57
2022/03/24 02:11:40;;;;;;;36.63;28.57;;;;;;;;;;2043784;29;20180;-59
2022/03/24 02:12:40;;;;;;;38.53;28.33;;;;;;;;;;2043821;29;20235;-55
2022/03/24 02:13:43;;;;;;;38.10;29.43;;;;;;;;;;2051763;28;20163;-55
2022/03/24 02:14:43;;;;;;;38.83;29.13;;;;;;;;;;2050800;28;20210;-52
2022/03/24 02:15:44;;;;;;;36.80;27.33;;;;;;;;;;2044137;29;20166;-54
2022/03/24 02:16:47;;;;;;;35.93;27.00;;;;;;;;;;2036311;29;20189;-55
2022/03/24 02:17:48;;;;;;;39.53;29.20;;;;;;;;;;2043808;29;20175;-54
2022/03/24 02:18:49;;;;;;;41.53;29.23;;;;;;;;;;2044384;29;20183;-57
2022/03/24 02:19:49;;;;;;;40.63;29.60;;;;;;;;;;2044608;29;20164;-52
2022/03/24 02:20:50;;;;;;;43.97;30.43;;;;;;;;;;2036559;29;20572;-55
2022/03/24 02:21:52;;;;;;;40.53;30.13;;;;;;;;;;2040713;29;20177;-55
2022/03/24 02:22:53;;;;;;;37.37;28.70;;;;;;;;;;2044086;29;20171;-54
2022/03/24 02:23:53;;;;;;;38.93;28.83;;;;;;;;;;2044427;29;20183;-55
2022/03/24 02:24:53;;;;;;;38.50;28.93;;;;;;;;;;2036275;29;20200;-54
2022/03/24 02:25:54;;;;;;;40.27;30.17;;;;;;;;;;2028997;29;20177;-54
2022/03/24 02:26:59;;;;;;;38.17;27.97;;;;;;;;;;2036777;29;20200;-55
2022/03/24 02:28:01;;;;;;;40.17;29.50;;;;;;;;;;2036357;29;20179;-55
2022/03/24 02:29:06;;;;;;;39.70;27.93;;;;;;;;;;2029799;29;20201;-55
2022/03/24 02:30:07;;;;;;;40.20;29.17;;;;;;;;;;2044651;29;20164;-54
2022/03/24 02:31:09;;;;;;;41.80;29.20;;;;;;;;;;2052308;29;20286;-56
2022/03/24 02:32:11;;;;;;;37.57;28.00;;;;;;;;;;2043345;29;20184;-56
2022/03/24 02:33:12;;;;;;;38.40;29.63;;;;;;;;;;2043390;29;20202;-56
2022/03/24 02:35:33;;;;;;;42.13;29.37;;;;;;;;;;2043321;29;20175;-57
2022/03/24 02:36:39;;;;;;;42.63;30.23;;;;;;;;;;2043019;29;20179;-55
2022/03/24 02:37:40;;;;;;;39.93;27.73;;;;;;;;;;2035834;29;20180;-57
2022/03/24 02:38:40;;;;;;;39.77;29.77;;;;;;;;;;2035432;29;20208;-55
2022/03/24 02:39:41;;;;;;;40.97;30.83;;;;;;;;;;2042611;29;20155;-56
2022/03/24 02:40:43;;;;;;;41.93;29.80;;;;;;;;;;2051594;29;20788;-55
2022/03/24 02:41:49;;;;;;;43.13;31.20;;;;;;;;;;2042458;29;20164;-55
2022/03/24 02:42:49;;;;;;;37.77;29.00;;;;;;;;;;2043595;29;20159;-55
2022/03/24 02:43:50;;;;;;;36.87;28.83;;;;;;;;;;2042656;29;20263;-55
2022/03/24 02:44:51;;;;;;;45.70;30.63;;;;;;;;;;2043040;29;20830;-56
2022/03/24 02:45:53;;;;;;;40.80;30.00;;;;;;;;;;2051132;29;20174;-55
2022/03/24 02:46:55;;;;;;;40.63;30.20;;;;;;;;;;2041620;29;20255;-53
2022/03/24 02:47:55;;;;;;;42.13;28.47;;;;;;;;;;2041297;29;20194;-55
2022/03/24 02:48:55;;;;;;;44.47;31.07;;;;;;;;;;2050055;29;20187;-56
2022/03/24 02:49:56;;;;;;;41.50;29.70;;;;;;;;;;2050025;28;20179;-56
2022/03/24 02:50:58;;;;;;;40.53;30.43;;;;;;;;;;2050299;29;20183;-50
2022/03/24 02:51:59;;;;;;;41.20;31.07;;;;;;;;;;2049716;29;20229;-52
2022/03/24 02:53:00;;;;;;;37.60;28.77;;;;;;;;;;2049976;29;20219;-51
2022/03/24 02:54:00;;;;;;;40.67;30.00;;;;;;;;;;2049493;29;20209;-52
2022/03/24 02:55:01;;;;;;;44.70;31.07;;;;;;;;;;2050097;28;20540;-54
2022/03/24 02:56:01;;;;;;;40.70;28.70;;;;;;;;;;2049184;29;20210;-54
2022/03/24 02:57:02;;;;;;;36.77;29.07;;;;;;;;;;2049671;29;20171;-52
2022/03/24 02:58:02;;;;;;;37.90;29.07;;;;;;;;;;2049985;29;20183;-52
2022/03/24 02:59:04;;;;;;;38.57;29.37;;;;;;;;;;2049014;29;20163;-51
2022/03/24 03:00:05;;;;;;;38.90;29.47;;;;;;;;;;2041018;29;20172;-51
2022/03/24 03:01:06;;;;;;;39.07;28.83;;;;;;;;;;2040763;29;21203;-55
2022/03/24 03:02:06;;;;;;;42.00;30.40;;;;;;;;;;2048382;29;20179;-51
2022/03/24 03:03:06;;;;;;;38.77;29.30;;;;;;;;;;2049034;29;20186;-52
2022/03/24 03:04:07;;;;;;;42.37;31.03;;;;;;;;;;2048664;29;20183;-52
2022/03/24 03:05:07;;;;;;;40.47;30.27;;;;;;;;;;2047967;28;20195;-53
2022/03/24 03:06:07;;;;;;;38.00;30.07;;;;;;;;;;2048088;29;20183;-54
2022/03/24 03:07:08;;;;;;;44.90;30.93;;;;;;;;;;2049277;28;20528;-51
2022/03/24 03:08:08;;;;;;;41.67;29.40;;;;;;;;;;2039885;29;20187;-52
2022/03/24 03:09:09;;;;;;;40.00;30.80;;;;;;;;;;2036871;29;20180;-54
2022/03/24 03:10:09;;;;;;;41.20;29.90;;;;;;;;;;2044159;29;20241;-53
2022/03/24 03:11:09;;;;;;;36.80;28.23;;;;;;;;;;2047843;28;20183;-55
2022/03/24 03:12:10;;;;;;;39.37;28.63;;;;;;;;;;2045828;29;20214;-53
2022/03/24 03:13:10;;;;;;;37.77;28.83;;;;;;;;;;2049124;29;20292;-52
2022/03/24 03:14:11;;;;;;;41.77;31.20;;;;;;;;;;2047590;29;20261;-54
2022/03/24 03:15:12;;;;;;;44.40;29.47;;;;;;;;;;2047331;29;20207;-55
2022/03/24 03:16:12;;;;;;;39.27;29.53;;;;;;;;;;2047972;29;20192;-53
2022/03/24 03:17:15;;;;;;;41.23;30.43;;;;;;;;;;2049046;29;20636;-52
2022/03/24 03:18:15;;;;;;;40.70;30.20;;;;;;;;;;2048234;28;20187;-52
2022/03/24 03:19:17;;;;;;;40.90;29.67;;;;;;;;;;2048696;29;20174;-55
2022/03/24 03:20:18;;;;;;;41.20;28.57;;;;;;;;;;2048663;29;20670;-52
2022/03/24 03:21:19;;;;;;;40.63;29.53;;;;;;;;;;2048584;29;20183;-54
2022/03/24 03:22:21;;;;;;;44.30;29.93;;;;;;;;;;2048924;29;20175;-52
2022/03/24 03:23:21;;;;;;;40.73;29.60;;;;;;;;;;2049289;29;20627;-54
2022/03/24 03:24:22;;;;;;;39.80;29.07;;;;;;;;;;2048599;29;20186;-52
2022/03/24 03:25:22;;;;;;;38.37;29.33;;;;;;;;;;2049341;28;20191;-54
2022/03/24 03:26:23;;;;;;;41.23;29.00;;;;;;;;;;2048842;29;20616;-54
2022/03/24 03:27:24;;;;;;;39.67;30.30;;;;;;;;;;2049245;29;20179;-55
2022/03/24 03:28:25;;;;;;;40.43;29.50;;;;;;;;;;2048597;29;20757;-54
2022/03/24 03:29:25;;;;;;;40.57;29.63;;;;;;;;;;2048022;29;20264;-53
2022/03/24 03:30:26;;;;;;;40.40;29.20;;;;;;;;;;2040706;29;20718;-54
2022/03/24 03:31:28;;;;;;;38.80;29.53;;;;;;;;;;2032048;29;20175;-54
2022/03/24 03:32:28;;;;;;;37.77;28.50;;;;;;;;;;2040827;29;20183;-51
2022/03/24 03:33:29;;;;;;;44.57;29.00;;;;;;;;;;2047687;29;20204;-54
2022/03/24 03:34:29;;;;;;;39.73;29.50;;;;;;;;;;2049346;29;20171;-57
2022/03/24 03:35:29;;;;;;;40.13;29.17;;;;;;;;;;2048907;28;20207;-52
2022/03/24 03:36:31;;;;;;;35.80;28.10;;;;;;;;;;2049901;28;20175;-53
2022/03/24 03:37:31;;;;;;;39.17;28.73;;;;;;;;;;2049763;29;20197;-57
2022/03/24 03:38:33;;;;;;;41.23;30.07;;;;;;;;;;2048844;29;20163;-54
2022/03/24 03:39:34;;;;;;;39.23;28.00;;;;;;;;;;2049530;29;20823;-55
2022/03/24 03:40:34;;;;;;;39.93;30.10;;;;;;;;;;2048935;29;20628;-52
2022/03/24 03:41:35;;;;;;;43.67;29.47;;;;;;;;;;2049145;29;20182;-54
2022/03/24 03:42:36;;;;;;;40.40;29.23;;;;;;;;;;2041212;29;20178;-54
2022/03/24 03:43:36;;;;;;;38.90;28.27;;;;;;;;;;2048177;29;20179;-55
2022/03/24 03:44:37;;;;;;;41.53;29.67;;;;;;;;;;2048925;28;20198;-55
2022/03/24 03:45:37;;;;;;;42.00;30.00;;;;;;;;;;2048743;29;20163;-55
2022/03/24 03:46:37;;;;;;;40.47;30.37;;;;;;;;;;2048968;29;20538;-54
2022/03/24 03:47:38;;;;;;;39.80;29.33;;;;;;;;;;2040584;29;20229;-56
2022/03/24 03:48:38;;;;;;;40.37;29.40;;;;;;;;;;2040082;29;20160;-55
2022/03/24 03:49:39;;;;;;;41.03;30.30;;;;;;;;;;2048426;28;20179;-55
2022/03/24 03:50:42;;;;;;;42.73;30.70;;;;;;;;;;2048335;29;20173;-51
2022/03/24 03:51:42;;;;;;;40.33;29.53;;;;;;;;;;2049073;29;20665;-56
2022/03/24 03:52:42;;;;;;;37.17;29.13;;;;;;;;;;2048778;29;20163;-54
2022/03/24 03:53:43;;;;;;;41.33;29.67;;;;;;;;;;2048715;29;20257;-55
2022/03/24 03:54:43;;;;;;;38.97;28.47;;;;;;;;;;2048326;28;20229;-54
2022/03/24 03:55:43;;;;;;;41.13;28.37;;;;;;;;;;2048895;29;20647;-58
2022/03/24 03:56:44;;;;;;;36.60;28.00;;;;;;;;;;2048871;29;20175;-56
2022/03/24 03:57:44;;;;;;;42.93;29.10;;;;;;;;;;2048502;29;20163;-54
2022/03/24 03:58:44;;;;;;;40.63;29.93;;;;;;;;;;2048672;29;20239;-52
2022/03/24 03:59:45;;;;;;;47.77;31.73;;;;;;;;;;2048780;29;20206;-53
2022/03/24 04:00:55;;;;;;;40.33;28.80;;;;;;;;;;2048829;29;20179;-54
2022/03/24 04:01:57;;;;;;;37.93;28.90;;;;;;;;;;2046947;29;20178;-55
2022/03/24 04:02:58;;;;;;;39.93;29.93;;;;;;;;;;2047616;29;20230;-53
2022/03/24 04:03:59;;;;;;;37.90;28.77;;;;;;;;;;2048551;29;20187;-53
2022/03/24 04:04:59;;;;;;;39.90;29.23;;;;;;;;;;2048871;28;20194;-55
2022/03/24 04:06:06;;;;;;;40.53;28.97;;;;;;;;;;2049226;29;20191;-52
2022/03/24 04:07:06;;;;;;;41.10;28.97;;;;;;;;;;2049037;28;20187;-55
2022/03/24 04:08:10;;;;;;;39.70;27.37;;;;;;;;;;2049569;29;20179;-56
2022/03/24 04:09:11;;;;;;;44.87;29.53;;;;;;;;;;2049339;29;20191;-55
2022/03/24 04:10:11;;;;;;;37.53;28.33;;;;;;;;;;2048855;29;20557;-56
2022/03/24 04:11:12;;;;;;;42.40;29.07;;;;;;;;;;2048906;29;20266;-53
2022/03/24 04:12:13;;;;;;;36.60;27.70;;;;;;;;;;2048659;29;20221;-52
2022/03/24 04:13:14;;;;;;;39.37;28.90;;;;;;;;;;2048757;29;20198;-51
2022/03/24 04:14:14;;;;;;;40.80;28.37;;;;;;;;;;2048541;29;20214;-56
2022/03/24 04:15:14;;;;;;;41.17;30.50;;;;;;;;;;2048485;29;20206;-51
2022/03/24 04:16:15;;;;;;;43.17;29.50;;;;;;;;;;2048653;29;20210;-52
2022/03/24 04:17:17;;;;;;;38.53;29.10;;;;;;;;;;2048719;29;20167;-52
2022/03/24 04:18:18;;;;;;;38.73;29.30;;;;;;;;;;2048013;29;20190;-51
2022/03/24 04:19:19;;;;;;;40.43;29.60;;;;;;;;;;2040086;29;20641;-55
2022/03/24 04:20:23;;;;;;;41.30;29.10;;;;;;;;;;2040946;29;20569;-55
2022/03/24 04:21:23;;;;;;;38.57;29.57;;;;;;;;;;2049123;29;20170;-54
2022/03/24 04:22:24;;;;;;;42.70;30.27;;;;;;;;;;2048412;29;20639;-54
2022/03/24 04:23:26;;;;;;;37.10;27.57;;;;;;;;;;2049240;29;20187;-52
2022/03/24 04:24:26;;;;;;;42.87;28.90;;;;;;;;;;2050460;29;20210;-51
2022/03/24 04:25:26;;;;;;;39.10;30.20;;;;;;;;;;2050611;28;20243;-51
2022/03/24 04:26:27;;;;;;;39.53;28.83;;;;;;;;;;2041889;29;20172;-52
2022/03/24 04:27:27;;;;;;;39.23;29.30;;;;;;;;;;2041247;29;20180;-51
2022/03/24 04:28:27;;;;;;;42.87;31.53;;;;;;;;;;2041107;29;20644;-57
2022/03/24 04:29:31;;;;;;;42.60;30.07;;;;;;;;;;2041213;29;20175;-55
2022/03/24 04:30:32;;;;;;;39.83;29.47;;;;;;;;;;2040786;29;20533;-53
2022/03/24 04:31:32;;;;;;;41.23;29.70;;;;;;;;;;2048682;29;20175;-51
2022/03/24 04:32:33;;;;;;;43.17;29.20;;;;;;;;;;2048694;28;20179;-54
2022/03/24 04:33:33;;;;;;;36.80;28.33;;;;;;;;;;2048402;28;20695;-53
2022/03/24 04:34:33;;;;;;;41.93;29.57;;;;;;;;;;2040426;28;20175;-55
2022/03/24 04:35:34;;;;;;;40.87;30.20;;;;;;;;;;2040835;29;20187;-55
2022/03/24 04:36:34;;;;;;;40.57;30.93;;;;;;;;;;2048527;29;20178;-53
2022/03/24 04:37:35;;;;;;;42.27;29.80;;;;;;;;;;2048782;29;20654;-52
2022/03/24 04:38:35;;;;;;;41.13;29.07;;;;;;;;;;2049605;29;20270;-52
2022/03/24 04:39:36;;;;;;;41.90;28.73;;;;;;;;;;2049563;29;20265;-53
2022/03/24 04:40:36;;;;;;;37.77;28.90;;;;;;;;;;2052189;29;20389;-56
2022/03/24 04:41:37;;;;;;;41.27;30.43;;;;;;;;;;2052933;28;20174;-55
2022/03/24 04:42:37;;;;;;;42.70;30.17;;;;;;;;;;2052313;29;20178;-56
2022/03/24 04:43:38;;;;;;;39.30;28.50;;;;;;;;;;2052625;29;20250;-56
2022/03/24 04:44:38;;;;;;;39.77;28.87;;;;;;;;;;2051734;29;20171;-55
2022/03/24 04:45:38;;;;;;;37.63;28.87;;;;;;;;;;2043613;29;20549;-56
2022/03/24 04:46:38;;;;;;;44.03;30.00;;;;;;;;;;2043622;29;20168;-58
2022/03/24 04:47:40;;;;;;;40.63;29.43;;;;;;;;;;2052354;29;20385;-56
2022/03/24 04:48:40;;;;;;;40.40;29.67;;;;;;;;;;2052390;29;20183;-55
2022/03/24 04:49:40;;;;;;;39.57;29.67;;;;;;;;;;2043303;29;20546;-54
2022/03/24 04:50:40;;;;;;;43.70;31.10;;;;;;;;;;2042694;29;20164;-55
2022/03/24 04:51:41;;;;;;;42.63;30.67;;;;;;;;;;2049036;29;20171;-52
2022/03/24 04:52:42;;;;;;;41.67;30.83;;;;;;;;;;2033391;29;20248;-52
2022/03/24 04:53:42;;;;;;;41.47;29.67;;;;;;;;;;2041188;29;20168;-52
2022/03/24 04:54:42;;;;;;;37.43;29.17;;;;;;;;;;2049361;28;20205;-51
2022/03/24 04:55:43;;;;;;;38.47;28.67;;;;;;;;;;2049474;29;20175;-56
2022/03/24 04:56:44;;;;;;;41.57;29.73;;;;;;;;;;2049202;29;20168;-53
2022/03/24 04:57:45;;;;;;;41.43;28.97;;;;;;;;;;2049164;29;20278;-52
2022/03/24 04:58:45;;;;;;;39.73;29.30;;;;;;;;;;2048538;29;20159;-53
2022/03/24 04:59:45;;;;;;;40.67;29.93;;;;;;;;;;2040437;29;20164;-50
2022/03/24 05:00:46;;;;;;;39.13;28.60;;;;;;;;;;2040582;29;20606;-53
2022/03/24 05:01:46;;;;;;;39.93;29.67;;;;;;;;;;2048746;29;20167;-51
2022/03/24 05:02:49;;;;;;;44.87;30.37;;;;;;;;;;2048900;29;20202;-51
2022/03/24 05:03:49;;;;;;;42.17;30.93;;;;;;;;;;2048921;29;20632;-52
2022/03/24 05:04:49;;;;;;;41.57;29.97;;;;;;;;;;2047882;29;20179;-51
2022/03/24 05:05:50;;;;;;;46.53;30.23;;;;;;;;;;2049112;29;20206;-53
2022/03/24 05:06:50;;;;;;;39.90;28.97;;;;;;;;;;2048296;29;20194;-52
2022/03/24 05:07:51;;;;;;;37.70;29.20;;;;;;;;;;2048553;29;20167;-54
2022/03/24 05:08:51;;;;;;;43.57;30.87;;;;;;;;;;2049044;29;20160;-53
2022/03/24 05:09:53;;;;;;;38.27;28.37;;;;;;;;;;2048903;29;20190;-52
2022/03/24 05:10:53;;;;;;;40.77;29.23;;;;;;;;;;2048130;29;20258;-54
2022/03/24 05:11:53;;;;;;;42.77;29.23;;;;;;;;;;2047152;29;20477;-54
2022/03/24 05:12:53;;;;;;;45.53;30.60;;;;;;;;;;2047280;29;20569;-52
2022/03/24 05:13:53;;;;;;;41.80;30.07;;;;;;;;;;2048087;29;20179;-54
2022/03/24 05:14:54;;;;;;;38.87;28.50;;;;;;;;;;2048344;28;20195;-51
2022/03/24 05:15:56;;;;;;;42.73;30.43;;;;;;;;;;2073383;23;20546;-63
2022/03/24 05:16:56;;;;;;;41.37;30.27;;;;;;;;;;2069235;28;20230;-64
2022/03/24 05:17:56;;;;;;;43.23;30.60;;;;;;;;;;2068705;28;20184;-64
2022/03/24 05:18:57;;;;;;;43.63;31.13;;;;;;;;;;2076571;28;20171;-65
2022/03/24 05:19:57;;;;;;;38.37;28.53;;;;;;;;;;2081956;28;20267;-66
2022/03/24 05:20:57;;;;;;;39.80;28.50;;;;;;;;;;2081345;28;20251;-64
2022/03/24 05:21:58;;;;;;;40.73;30.17;;;;;;;;;;2069390;28;20196;-67
2022/03/24 05:22:58;;;;;;;41.80;30.27;;;;;;;;;;2076627;28;20191;-66
2022/03/24 05:23:59;;;;;;;39.33;29.87;;;;;;;;;;2081863;28;20191;-64
2022/03/24 05:24:59;;;;;;;40.80;30.90;;;;;;;;;;2082217;28;20204;-65
2022/03/24 05:25:59;;;;;;;41.43;30.37;;;;;;;;;;2088413;28;20244;-65
2022/03/24 05:27:00;;;;;;;39.57;29.20;;;;;;;;;;2078125;28;20184;-65
2022/03/24 05:28:00;;;;;;;46.47;30.03;;;;;;;;;;2081870;28;20168;-67
2022/03/24 05:29:00;;;;;;;42.63;29.37;;;;;;;;;;2090665;28;20171;-66
2022/03/24 05:30:03;;;;;;;46.47;30.10;;;;;;;;;;2083975;28;20238;-66
2022/03/24 05:31:03;;;;;;;43.03;29.67;;;;;;;;;;2090792;28;20167;-65
2022/03/24 05:32:04;;;;;;;42.97;29.70;;;;;;;;;;2090812;28;20286;-65
2022/03/24 05:33:05;;;;;;;40.97;30.80;;;;;;;;;;2089558;28;20195;-65
2022/03/24 05:34:05;;;;;;;41.63;29.83;;;;;;;;;;2089855;28;20180;-65
2022/03/24 05:35:05;;;;;;;40.73;30.50;;;;;;;;;;2091402;28;20191;-65
2022/03/24 05:36:06;;;;;;;46.13;30.63;;;;;;;;;;2090366;28;20203;-66
2022/03/24 05:37:06;;;;;;;38.33;29.57;;;;;;;;;;2090430;28;20237;-63
2022/03/24 05:38:06;;;;;;;38.97;29.20;;;;;;;;;;2089578;28;20253;-61
2022/03/24 05:39:06;;;;;;;41.10;29.73;;;;;;;;;;2088981;28;20524;-65
2022/03/24 05:40:07;;;;;;;40.20;29.20;;;;;;;;;;2082814;28;20179;-63
2022/03/24 05:41:13;;;;;;;44.87;30.03;;;;;;;;;;2088738;28;20178;-61
2022/03/24 05:42:13;;;;;;;44.37;30.40;;;;;;;;;;2090615;28;20186;-64
2022/03/24 05:43:13;;;;;;;41.87;29.87;;;;;;;;;;2090466;28;20639;-64
2022/03/24 05:44:13;;;;;;;41.40;29.87;;;;;;;;;;2090046;28;20176;-63
2022/03/24 05:45:14;;;;;;;43.90;29.77;;;;;;;;;;2090220;28;20237;-63
2022/03/24 05:46:14;;;;;;;42.90;29.23;;;;;;;;;;2090403;28;20202;-61
2022/03/24 05:47:14;;;;;;;39.83;28.27;;;;;;;;;;2090487;28;20222;-64
2022/03/24 05:48:16;;;;;;;38.17;28.80;;;;;;;;;;2081437;28;20206;-62
2022/03/24 05:49:28;;;;;;;36.00;28.00;;;;;;;;;;2068629;28;20181;-63
2022/03/24 05:50:49;;;;;;;39.13;27.83;;;;;;;;;;2053294;28;20314;-64
2022/03/24 05:51:51;;;;;;;38.07;28.37;;;;;;;;;;2085643;28;20389;-66
2022/03/24 05:52:51;;;;;;;40.80;28.80;;;;;;;;;;2081369;28;20160;-63
2022/03/24 05:53:51;;;;;;;38.00;29.30;;;;;;;;;;2081514;28;20263;-62
2022/03/24 05:54:52;;;;;;;38.17;29.07;;;;;;;;;;2073026;28;20185;-65
2022/03/24 05:55:52;;;;;;;38.97;28.17;;;;;;;;;;2073432;28;20185;-64